Time;durP1;ratioP1;P1;durP2;ratioP2;P2;SDS_P1;SDS_P2;PMS_P1;PMS_P2;Temp;Humidity;BMP_temperature;BMP_pressure;BME280_temperature;BME280_humidity;BME280_pressure;Samples;Min_cycle;Max_cycle;Signal;HPM_P1;HPM_P2
2023/02/17 00:00:31;;;;;;;7.23;4.47;;;9.90;99.90;;;;;;5053413;28;20235;-85
2023/02/17 00:02:58;;;;;;;9.07;4.50;;;9.90;99.90;;;;;;5053632;28;20189;-84
2023/02/17 00:05:25;;;;;;;6.70;4.97;;;10.00;99.90;;;;;;5071371;28;20200;-85
2023/02/17 00:07:51;;;;;;;6.03;4.53;;;9.90;99.90;;;;;;5053591;28;20231;-86
2023/02/17 00:10:17;;;;;;;6.47;3.03;;;9.90;99.90;;;;;;5036888;28;20182;-84
2023/02/17 00:12:43;;;;;;;7.70;5.27;;;9.90;99.90;;;;;;5053310;28;20204;-86
2023/02/17 00:15:09;;;;;;;9.50;3.63;;;9.90;99.90;;;;;;5053207;28;20645;-84
2023/02/17 00:17:36;;;;;;;5.10;4.47;;;9.90;99.90;;;;;;5053403;28;20185;-86
2023/02/17 00:20:02;;;;;;;7.73;4.37;;;9.90;99.90;;;;;;5036293;28;20178;-84
2023/02/17 00:22:28;;;;;;;16.47;4.63;;;9.90;99.90;;;;;;5053212;28;20209;-84
2023/02/17 00:24:54;;;;;;;10.03;4.10;;;9.90;99.90;;;;;;5070953;28;20181;-85
2023/02/17 00:27:20;;;;;;;12.27;4.53;;;9.90;99.90;;;;;;5036581;28;20751;-84
2023/02/17 00:29:45;;;;;;;7.03;3.83;;;9.90;99.90;;;;;;5036417;28;20178;-83
2023/02/17 00:32:11;;;;;;;13.97;3.33;;;9.90;99.90;;;;;;5035706;28;20294;-84
2023/02/17 00:34:37;;;;;;;7.33;3.27;;;9.90;99.90;;;;;;5036325;28;20178;-84
2023/02/17 00:37:03;;;;;;;11.03;6.17;;;9.90;99.90;;;;;;5052416;28;20224;-84
2023/02/17 00:39:29;;;;;;;11.47;4.50;;;9.90;99.90;;;;;;5052672;28;20658;-85
2023/02/17 00:41:54;;;;;;;10.00;5.97;;;9.90;99.90;;;;;;5036195;28;20209;-84
2023/02/17 00:44:23;;;;;;;7.77;4.53;;;9.90;99.90;;;;;;5052562;28;20188;-84
2023/02/17 00:46:48;;;;;;;3.37;3.03;;;9.90;99.90;;;;;;5070332;28;20177;-85
2023/02/17 00:49:20;;;;;;;6.80;3.80;;;9.90;99.90;;;;;;5035887;28;20177;-84
2023/02/17 00:51:46;;;;;;;11.27;4.87;;;9.90;99.90;;;;;;5052821;28;20177;-84
2023/02/17 00:54:13;;;;;;;4.13;2.93;;;9.90;99.90;;;;;;5052739;28;20280;-85
2023/02/17 00:56:39;;;;;;;7.73;4.83;;;9.80;99.90;;;;;;5019596;28;20177;-85
2023/02/17 00:59:05;;;;;;;4.73;3.43;;;9.80;99.90;;;;;;5052401;28;20235;-84
2023/02/17 01:01:32;;;;;;;5.47;2.67;;;9.80;99.90;;;;;;5052047;28;20228;-85
2023/02/17 01:03:58;;;;;;;9.17;4.43;;;9.80;99.90;;;;;;5070122;28;20317;-86
2023/02/17 01:06:29;;;;;;;6.33;3.87;;;9.80;99.90;;;;;;5035768;28;20664;-86
2023/02/17 01:08:55;;;;;;;8.37;2.97;;;9.80;99.90;;;;;;5052081;28;20170;-85
2023/02/17 01:11:25;;;;;;;7.47;4.20;;;9.80;99.90;;;;;;5069344;28;20186;-84
2023/02/17 01:13:51;;;;;;;10.33;3.80;;;9.80;99.90;;;;;;5051573;28;20173;-85
2023/02/17 01:16:28;;;;;;;4.60;4.17;;;9.80;99.90;;;;;;5051968;28;20178;-86
2023/02/17 01:18:55;;;;;;;6.07;3.60;;;9.80;99.90;;;;;;5051986;28;20165;-86
2023/02/17 01:21:23;;;;;;;8.43;5.17;;;9.90;99.90;;;;;;5070024;28;20208;-87
2023/02/17 01:23:50;;;;;;;8.93;4.67;;;9.90;99.90;;;;;;5052130;28;20177;-84
2023/02/17 01:26:18;;;;;;;6.87;4.60;;;9.90;99.90;;;;;;5051979;28;20623;-84
2023/02/17 01:28:44;;;;;;;2.10;1.97;;;9.90;99.90;;;;;;5069976;28;20235;-85
2023/02/17 01:31:11;;;;;;;4.67;2.90;;;10.00;99.90;;;;;;5052125;28;20638;-85
2023/02/17 01:33:38;;;;;;;7.53;5.67;;;10.00;99.90;;;;;;5035281;28;20755;-84
2023/02/17 01:36:06;;;;;;;11.30;5.40;;;10.00;99.90;;;;;;5034837;28;20192;-84
2023/02/17 01:38:32;;;;;;;6.77;5.40;;;10.00;99.90;;;;;;5051960;28;20173;-85
2023/02/17 01:40:58;;;;;;;5.93;3.93;;;10.00;99.90;;;;;;5069941;28;20786;-83
2023/02/17 01:43:24;;;;;;;7.73;4.90;;;10.00;99.90;;;;;;5051650;28;20185;-85
2023/02/17 01:45:51;;;;;;;3.17;2.23;;;10.00;99.90;;;;;;5035397;28;20189;-84
2023/02/17 01:48:23;;;;;;;6.67;4.67;;;10.00;99.90;;;;;;5051581;28;20178;-84
2023/02/17 01:51:01;;;;;;;12.60;3.70;;;10.10;99.90;;;;;;5055125;28;20169;-85
2023/02/17 01:53:39;;;;;;;7.53;4.23;;;10.10;99.90;;;;;;5055758;28;20762;-84
2023/02/17 01:56:06;;;;;;;2.87;2.67;;;10.00;99.90;;;;;;5055891;28;20165;-84
2023/02/17 01:58:32;;;;;;;8.50;4.50;;;10.00;99.90;;;;;;5039245;28;20323;-85
2023/02/17 02:01:01;;;;;;;7.50;4.83;;;10.00;99.90;;;;;;5039404;28;20216;-84
2023/02/17 02:03:31;;;;;;;6.77;3.00;;;10.00;99.90;;;;;;5055776;28;20188;-86
2023/02/17 02:05:59;;;;;;;4.93;4.23;;;10.00;99.90;;;;;;5073303;28;20181;-84
2023/02/17 02:08:29;;;;;;;10.10;4.53;;;10.00;99.90;;;;;;5055603;28;20211;-87
2023/02/17 02:10:55;;;;;;;6.43;5.57;;;10.00;99.90;;;;;;5073427;28;20561;-85
2023/02/17 02:13:21;;;;;;;6.70;3.33;;;10.00;99.90;;;;;;5022100;28;20257;-86
2023/02/17 02:15:53;;;;;;;7.03;4.90;;;10.00;99.90;;;;;;5055668;28;20178;-84
2023/02/17 02:19:00;;;;;;;7.40;5.77;;;10.00;99.90;;;;;;5055009;28;20172;-85
2023/02/17 02:21:44;;;;;;;6.43;4.83;;;10.00;99.90;;;;;;5053718;28;20213;-85
2023/02/17 02:24:27;;;;;;;11.07;5.47;;;10.00;99.90;;;;;;5054676;28;20185;-85
2023/02/17 02:27:25;;;;;;;4.40;4.00;;;10.00;99.90;;;;;;5054035;28;20177;-85
2023/02/17 02:29:58;;;;;;;4.57;3.93;;;10.00;99.90;;;;;;5053335;28;20170;-84
2023/02/17 02:32:29;;;;;;;15.20;6.13;;;10.00;99.90;;;;;;5053145;28;20162;-84
2023/02/17 02:34:59;;;;;;;7.20;5.00;;;9.90;99.90;;;;;;5070851;28;20191;-84
2023/02/17 02:37:35;;;;;;;8.27;3.57;;;9.90;99.90;;;;;;5070823;28;20190;-84
2023/02/17 02:40:06;;;;;;;6.20;4.30;;;9.90;99.90;;;;;;5053226;28;20199;-84
2023/02/17 02:42:34;;;;;;;5.93;4.97;;;9.90;99.90;;;;;;5071937;28;20255;-83
2023/02/17 02:44:59;;;;;;;11.60;4.70;;;9.90;99.90;;;;;;5072654;28;20200;-84
2023/02/17 02:47:50;;;;;;;11.40;4.53;;;9.90;99.90;;;;;;5054724;28;20181;-87
2023/02/17 02:50:40;;;;;;;8.33;3.13;;;9.90;99.90;;;;;;5053040;28;20157;-84
2023/02/17 02:53:40;;;;;;;5.67;5.07;;;9.90;99.90;;;;;;5052717;28;20635;-88
2023/02/17 02:56:20;;;;;;;8.53;3.53;;;9.90;99.90;;;;;;5070535;28;20231;-86
2023/02/17 02:58:49;;;;;;;10.90;3.53;;;9.90;99.90;;;;;;5053171;28;20173;-85
2023/02/17 03:01:22;;;;;;;5.03;3.40;;;9.90;99.90;;;;;;5071335;28;20221;-85
2023/02/17 03:03:58;;;;;;;7.50;4.57;;;9.90;99.90;;;;;;5072682;28;20166;-85
2023/02/17 03:06:35;;;;;;;17.27;5.13;;;9.90;99.90;;;;;;5072687;28;20180;-85
2023/02/17 03:09:23;;;;;;;6.90;4.23;;;9.90;99.90;;;;;;5071253;28;20185;-87
2023/02/17 03:11:49;;;;;;;10.23;4.90;;;9.90;99.90;;;;;;5052627;28;20177;-84
2023/02/17 03:14:19;;;;;;;5.93;4.87;;;9.90;99.90;;;;;;5035970;28;20638;-85
2023/02/17 03:16:45;;;;;;;4.20;3.00;;;9.90;99.90;;;;;;5070468;28;20630;-85
2023/02/17 03:19:13;;;;;;;6.93;4.73;;;9.90;99.90;;;;;;5052507;28;20205;-85
2023/02/17 03:21:46;;;;;;;4.83;3.40;;;9.90;99.90;;;;;;5052417;28;20279;-84
2023/02/17 03:24:12;;;;;;;13.17;6.07;;;9.90;99.90;;;;;;5070100;28;20559;-88
2023/02/17 03:26:38;;;;;;;10.77;4.43;;;10.00;99.90;;;;;;5036220;28;20185;-84
2023/02/17 03:29:03;;;;;;;6.00;4.13;;;9.90;99.90;;;;;;5052443;28;20830;-85
2023/02/17 03:31:29;;;;;;;8.37;5.80;;;9.90;99.90;;;;;;5052722;28;20181;-86
2023/02/17 03:33:55;;;;;;;6.17;4.13;;;9.90;99.90;;;;;;5070717;28;20244;-85
2023/02/17 03:36:21;;;;;;;6.43;5.27;;;9.90;99.90;;;;;;5036678;28;20189;-86
2023/02/17 03:38:47;;;;;;;4.00;2.67;;;9.90;99.90;;;;;;5053783;28;20557;-84
2023/02/17 03:41:12;;;;;;;4.87;4.43;;;9.90;99.90;;;;;;5053763;28;20217;-85
2023/02/17 03:43:38;;;;;;;6.60;3.67;;;9.90;99.90;;;;;;5037180;28;20174;-87
2023/02/17 03:46:08;;;;;;;6.67;2.47;;;9.90;99.90;;;;;;5037014;28;20189;-86
2023/02/17 03:48:34;;;;;;;8.27;3.03;;;9.90;99.90;;;;;;5071147;28;20285;-84
2023/02/17 03:51:09;;;;;;;4.50;4.10;;;9.90;99.90;;;;;;5035605;28;20266;-85
2023/02/17 03:53:35;;;;;;;10.80;4.17;;;9.90;99.90;;;;;;5070184;28;20169;-85
2023/02/17 03:56:01;;;;;;;7.50;3.67;;;9.90;99.90;;;;;;5035355;28;20184;-88
2023/02/17 03:58:26;;;;;;;21.17;4.17;;;9.90;99.90;;;;;;5035184;28;20178;-84
2023/02/17 04:00:52;;;;;;;6.07;5.27;;;9.90;99.90;;;;;;5035108;28;20233;-86
2023/02/17 04:03:18;;;;;;;9.30;4.23;;;9.90;99.90;;;;;;5035058;28;20645;-84
2023/02/17 04:05:44;;;;;;;7.03;4.23;;;9.90;99.90;;;;;;5035323;28;20178;-85
2023/02/17 04:08:09;;;;;;;10.47;3.50;;;9.90;99.90;;;;;;5035028;28;20781;-88
2023/02/17 04:10:35;;;;;;;4.70;2.47;;;9.90;99.90;;;;;;5034888;28;20238;-83
2023/02/17 04:13:01;;;;;;;17.53;4.47;;;9.90;99.90;;;;;;5034568;28;20516;-84
2023/02/17 04:15:28;;;;;;;6.60;3.67;;;9.90;99.90;;;;;;5069012;28;20181;-86
2023/02/17 04:17:54;;;;;;;4.87;4.23;;;9.90;99.90;;;;;;5051175;28;20598;-84
2023/02/17 04:20:20;;;;;;;3.37;3.17;;;9.90;99.90;;;;;;5051326;28;20178;-84
2023/02/17 04:22:46;;;;;;;7.77;3.33;;;9.90;99.90;;;;;;5068710;28;20213;-84
2023/02/17 04:25:12;;;;;;;4.40;3.30;;;9.90;99.90;;;;;;5034607;28;20306;-85
2023/02/17 04:27:38;;;;;;;6.63;3.80;;;9.90;99.90;;;;;;5034786;28;20181;-89
2023/02/17 04:30:05;;;;;;;5.43;3.90;;;9.90;99.90;;;;;;5034505;28;20676;-85
2023/02/17 04:32:31;;;;;;;7.37;3.57;;;9.90;99.90;;;;;;5068230;28;20320;-85
2023/02/17 04:34:57;;;;;;;7.77;3.57;;;9.90;99.90;;;;;;5068681;28;20268;-88
2023/02/17 04:37:23;;;;;;;3.77;3.37;;;9.90;99.90;;;;;;5034028;28;20185;-84
2023/02/17 04:39:49;;;;;;;7.20;3.53;;;9.90;99.90;;;;;;5068575;28;20196;-85
2023/02/17 04:42:15;;;;;;;6.93;3.40;;;10.00;99.90;;;;;;5068456;28;20308;-86
2023/02/17 04:44:40;;;;;;;3.43;3.13;;;10.00;99.90;;;;;;5035178;28;20296;-84
2023/02/17 04:47:06;;;;;;;5.13;3.23;;;10.00;99.90;;;;;;5019296;28;20208;-86
2023/02/17 04:49:35;;;;;;;7.40;3.70;;;10.00;99.90;;;;;;5035631;28;20184;-83
2023/02/17 04:52:01;;;;;;;4.73;4.10;;;10.00;99.90;;;;;;5051904;28;20553;-85
2023/02/17 04:54:26;;;;;;;5.93;3.57;;;10.00;99.90;;;;;;5018754;28;20184;-85
2023/02/17 04:56:52;;;;;;;8.67;4.93;;;10.00;99.90;;;;;;5051960;28;20188;-85
2023/02/17 04:59:18;;;;;;;12.80;4.40;;;10.10;99.90;;;;;;5051474;28;20508;-85
2023/02/17 05:01:43;;;;;;;3.50;3.20;;;10.10;99.90;;;;;;5035130;28;20224;-85
2023/02/17 05:04:09;;;;;;;5.50;4.13;;;10.10;99.90;;;;;;5035591;28;20250;-83
2023/02/17 05:06:35;;;;;;;10.20;5.10;;;10.10;99.90;;;;;;5070222;28;20173;-84
2023/02/17 05:09:00;;;;;;;12.73;5.10;;;10.10;99.90;;;;;;5035024;28;20179;-85
2023/02/17 05:11:26;;;;;;;7.97;5.10;;;10.10;99.90;;;;;;5068210;28;20648;-87
2023/02/17 05:13:52;;;;;;;9.33;5.17;;;10.00;99.90;;;;;;5017289;28;20538;-83
2023/02/17 05:16:17;;;;;;;6.73;4.10;;;10.10;99.90;;;;;;5033443;28;20203;-84
2023/02/17 05:18:43;;;;;;;10.80;5.50;;;10.00;99.90;;;;;;5050504;28;20209;-85
2023/02/17 05:21:09;;;;;;;10.97;4.33;;;10.00;99.90;;;;;;5050155;28;20217;-83
2023/02/17 05:23:39;;;;;;;3.43;3.13;;;10.00;99.90;;;;;;5032907;28;20181;-86
2023/02/17 05:26:07;;;;;;;11.80;5.20;;;10.10;99.90;;;;;;5018536;28;20161;-87
2023/02/17 05:28:35;;;;;;;4.87;3.27;;;10.10;99.90;;;;;;5068131;28;20185;-83
2023/02/17 05:31:01;;;;;;;9.53;4.33;;;10.10;99.90;;;;;;5033908;28;20428;-84
2023/02/17 05:33:27;;;;;;;13.83;4.97;;;10.10;99.90;;;;;;5067859;28;20251;-84
2023/02/17 05:35:52;;;;;;;7.07;3.90;;;10.10;99.90;;;;;;5033385;28;20670;-85
2023/02/17 05:38:18;;;;;;;4.27;2.93;;;10.10;99.90;;;;;;5033777;28;20181;-85
2023/02/17 05:40:44;;;;;;;11.73;3.33;;;10.10;99.90;;;;;;5033545;28;20192;-85
2023/02/17 05:43:10;;;;;;;6.77;4.17;;;10.10;99.90;;;;;;5034962;28;20185;-84
2023/02/17 05:45:38;;;;;;;6.30;4.17;;;10.10;99.90;;;;;;5018506;28;20634;-84
2023/02/17 05:48:03;;;;;;;3.60;3.03;;;10.10;99.90;;;;;;5069388;28;20201;-86
2023/02/17 05:50:29;;;;;;;6.70;4.07;;;10.10;99.90;;;;;;5018435;28;20646;-83
2023/02/17 05:52:55;;;;;;;7.23;2.87;;;10.10;99.90;;;;;;5035116;28;20226;-84
2023/02/17 05:55:21;;;;;;;5.03;4.07;;;10.10;99.90;;;;;;5018676;28;20314;-84
2023/02/17 05:57:47;;;;;;;5.97;3.40;;;10.10;99.90;;;;;;5034959;28;20186;-86
2023/02/17 06:00:13;;;;;;;10.93;3.03;;;10.10;99.90;;;;;;5035098;28;20178;-87
2023/02/17 06:02:39;;;;;;;4.23;3.00;;;10.10;99.90;;;;;;5035216;28;20217;-87
2023/02/17 06:05:05;;;;;;;12.80;4.10;;;10.10;99.90;;;;;;5034837;28;20638;-85
2023/02/17 06:07:31;;;;;;;9.50;5.03;;;10.10;99.90;;;;;;5051348;28;20661;-87
2023/02/17 06:09:57;;;;;;;8.40;4.30;;;10.10;99.90;;;;;;5034689;28;20178;-85
2023/02/17 06:12:23;;;;;;;12.97;3.47;;;10.10;99.90;;;;;;5024035;28;20392;-83
2023/02/17 06:14:48;;;;;;;8.93;4.57;;;10.10;99.90;;;;;;5031615;28;20648;-84
2023/02/17 06:17:14;;;;;;;10.93;4.67;;;10.10;99.90;;;;;;5032927;28;20231;-83
2023/02/17 06:19:40;;;;;;;11.80;5.50;;;10.10;99.90;;;;;;5050438;28;20209;-85
2023/02/17 06:22:05;;;;;;;6.90;3.10;;;10.10;99.90;;;;;;5017682;28;20292;-85
2023/02/17 06:24:31;;;;;;;19.57;5.47;;;10.20;99.90;;;;;;5033175;28;20177;-84
2023/02/17 06:26:57;;;;;;;5.53;3.23;;;10.20;99.90;;;;;;5032979;28;20181;-83
2023/02/17 06:29:23;;;;;;;6.20;5.60;;;10.20;99.90;;;;;;5049902;28;20177;-85
2023/02/17 06:31:48;;;;;;;4.93;2.77;;;10.20;99.90;;;;;;5049452;28;20235;-86
2023/02/17 06:34:14;;;;;;;9.00;4.80;;;10.20;99.90;;;;;;5050055;28;20237;-84
2023/02/17 06:36:40;;;;;;;3.83;2.57;;;10.20;99.90;;;;;;5053661;28;20194;-85
2023/02/17 06:39:05;;;;;;;3.87;3.07;;;10.20;99.90;;;;;;5021829;28;20184;-85
2023/02/17 06:41:31;;;;;;;10.43;4.60;;;10.20;99.90;;;;;;5054553;28;20225;-85
2023/02/17 06:43:57;;;;;;;4.57;3.37;;;10.20;99.90;;;;;;5037698;28;20209;-87
2023/02/17 06:46:23;;;;;;;6.00;2.53;;;10.30;99.90;;;;;;5037641;28;20806;-86
2023/02/17 06:48:48;;;;;;;12.30;6.27;;;10.30;99.90;;;;;;5021598;28;20188;-84
2023/02/17 06:51:14;;;;;;;6.33;3.83;;;10.30;99.90;;;;;;5037950;28;20185;-87
2023/02/17 06:53:40;;;;;;;4.07;1.90;;;10.30;99.90;;;;;;5054843;28;20712;-86
2023/02/17 06:56:06;;;;;;;4.73;3.47;;;10.30;99.90;;;;;;5054966;28;20178;-85
2023/02/17 06:58:34;;;;;;;9.60;4.90;;;10.30;99.90;;;;;;5038177;28;20272;-85
2023/02/17 07:01:00;;;;;;;7.53;5.23;;;10.30;99.90;;;;;;5021472;28;20220;-86
2023/02/17 07:03:26;;;;;;;6.90;4.47;;;10.30;99.90;;;;;;5054331;28;20185;-85
2023/02/17 07:05:56;;;;;;;3.23;2.07;;;10.40;99.90;;;;;;5053494;28;20188;-85
2023/02/17 07:08:22;;;;;;;10.23;5.10;;;10.40;99.90;;;;;;5071787;28;20174;-83
2023/02/17 07:10:47;;;;;;;4.63;2.67;;;10.40;99.90;;;;;;5037014;28;20188;-85
2023/02/17 07:13:13;;;;;;;5.60;3.47;;;10.40;99.90;;;;;;5053709;28;20188;-87
2023/02/17 07:15:39;;;;;;;7.63;5.03;;;10.40;99.90;;;;;;5036751;28;20735;-86
2023/02/17 07:18:04;;;;;;;5.93;4.63;;;10.40;99.90;;;;;;5036682;28;20623;-86
2023/02/17 07:20:31;;;;;;;1.97;1.53;;;10.40;99.90;;;;;;5053315;28;20540;-83
2023/02/17 07:22:57;;;;;;;9.73;5.20;;;10.40;99.90;;;;;;5036672;28;20634;-85
2023/02/17 07:25:23;;;;;;;5.33;4.17;;;10.40;99.90;;;;;;5037132;28;20263;-84
2023/02/17 07:27:49;;;;;;;4.67;4.23;;;10.40;99.90;;;;;;5037155;28;20201;-84
2023/02/17 07:30:15;;;;;;;10.17;5.37;;;10.50;99.90;;;;;;5053479;28;20177;-88
2023/02/17 07:32:40;;;;;;;6.97;3.47;;;10.50;99.90;;;;;;5053848;28;20323;-86
2023/02/17 07:35:07;;;;;;;5.43;4.07;;;10.50;99.90;;;;;;5071309;28;20220;-85
2023/02/17 07:37:34;;;;;;;5.97;4.20;;;10.50;99.90;;;;;;5036826;28;20185;-86
2023/02/17 07:40:00;;;;;;;4.37;3.30;;;10.50;99.90;;;;;;5036875;28;20189;-86
2023/02/17 07:42:28;;;;;;;8.13;3.73;;;10.50;99.90;;;;;;5053481;28;20248;-88
2023/02/17 07:44:54;;;;;;;7.87;4.07;;;10.50;99.90;;;;;;5020793;28;20275;-85
2023/02/17 07:47:20;;;;;;;5.23;4.73;;;10.50;99.90;;;;;;5035821;28;20177;-85
2023/02/17 07:49:46;;;;;;;3.57;2.07;;;10.50;99.90;;;;;;5037019;28;20182;-83
2023/02/17 07:52:11;;;;;;;4.63;3.60;;;10.50;99.90;;;;;;5036826;28;20762;-84
2023/02/17 07:54:37;;;;;;;6.63;2.77;;;10.50;99.90;;;;;;5036812;28;20177;-85
2023/02/17 07:57:03;;;;;;;5.50;4.37;;;10.60;99.90;;;;;;5053029;28;20178;-87
2023/02/17 07:59:29;;;;;;;16.60;4.53;;;10.50;99.90;;;;;;5036881;28;20548;-86
2023/02/17 08:01:54;;;;;;;9.43;2.80;;;10.60;99.90;;;;;;5053013;28;20797;-86
2023/02/17 08:04:20;;;;;;;4.17;2.67;;;10.60;99.90;;;;;;5053574;28;20510;-87
2023/02/17 08:06:46;;;;;;;6.77;3.47;;;10.70;99.90;;;;;;5052980;28;20736;-87
2023/02/17 08:14:40;;;;;;;4.33;2.50;;;10.70;99.90;;;;;;5070547;28;20228;-86
2023/02/17 08:17:06;;;;;;;6.53;3.20;;;10.70;99.90;;;;;;5035240;28;20239;-90
2023/02/17 08:19:32;;;;;;;4.67;3.53;;;10.70;99.90;;;;;;5051550;28;20665;-85
2023/02/17 08:21:58;;;;;;;4.53;2.37;;;10.70;99.90;;;;;;5051597;28;20261;-89
2023/02/17 08:24:26;;;;;;;3.87;1.87;;;10.70;99.90;;;;;;5051588;28;20189;-88
2023/02/17 08:26:51;;;;;;;2.93;2.37;;;10.70;99.90;;;;;;5034306;28;20181;-89
2023/02/17 08:29:19;;;;;;;3.50;2.10;;;10.70;99.90;;;;;;5051062;28;20192;-84
2023/02/17 08:31:45;;;;;;;10.63;3.97;;;10.80;99.90;;;;;;5050022;28;20184;-86
2023/02/17 08:34:12;;;;;;;3.50;2.40;;;10.80;99.90;;;;;;5050025;28;20326;-88
2023/02/17 08:36:38;;;;;;;4.37;2.60;;;10.80;99.90;;;;;;5051028;28;20187;-85
2023/02/17 08:39:09;;;;;;;1.97;1.70;;;10.80;99.90;;;;;;5051282;28;20280;-88
2023/02/17 08:41:37;;;;;;;27.97;3.07;;;10.80;99.90;;;;;;5069113;28;20202;-89
2023/02/17 08:44:07;;;;;;;1.90;1.80;;;10.80;99.90;;;;;;5051456;28;20181;-87
2023/02/17 08:46:35;;;;;;;2.53;2.27;;;10.80;99.90;;;;;;5052343;28;20574;-86
2023/02/17 08:49:00;;;;;;;2.23;2.10;;;10.80;99.90;;;;;;5052562;28;20178;-88
2023/02/17 08:51:26;;;;;;;7.97;2.07;;;10.80;99.90;;;;;;5052257;28;20184;-88
2023/02/17 08:53:54;;;;;;;4.33;2.87;;;10.80;99.90;;;;;;5052332;28;20544;-85
2023/02/17 08:56:25;;;;;;;5.50;2.13;;;10.80;99.90;;;;;;5069211;28;20610;-85
2023/02/17 08:58:51;;;;;;;5.67;2.47;;;10.80;99.90;;;;;;5051937;28;20248;-86
2023/02/17 09:01:17;;;;;;;1.77;1.57;;;10.90;99.90;;;;;;5051895;28;20289;-85
2023/02/17 09:03:43;;;;;;;3.77;2.40;;;10.90;99.90;;;;;;5035337;28;20264;-84
2023/02/17 09:06:09;;;;;;;4.67;2.63;;;10.90;99.90;;;;;;5051585;28;20682;-86
2023/02/17 09:08:37;;;;;;;3.97;2.37;;;10.90;99.90;;;;;;5034819;28;20761;-84
2023/02/17 09:11:04;;;;;;;2.33;2.13;;;11.00;99.90;;;;;;5036377;28;20191;-85
2023/02/17 09:13:30;;;;;;;2.53;1.27;;;11.00;99.90;;;;;;5035818;28;20178;-84
2023/02/17 09:15:56;;;;;;;1.90;1.70;;;11.00;99.90;;;;;;5051704;28;20205;-84
2023/02/17 09:18:23;;;;;;;1.77;1.07;;;11.00;99.90;;;;;;5069862;28;20174;-82
2023/02/17 09:20:49;;;;;;;1.67;1.57;;;11.00;99.90;;;;;;5051328;28;20173;-84
2023/02/17 09:23:15;;;;;;;0.87;0.87;;;11.10;99.90;;;;;;5051033;28;20527;-87
2023/02/17 09:25:41;;;;;;;1.57;1.27;;;11.00;99.90;;;;;;5018287;28;20246;-83
2023/02/17 09:28:06;;;;;;;4.00;1.70;;;11.10;99.90;;;;;;5034981;28;20183;-86
2023/02/17 09:30:32;;;;;;;3.40;2.30;;;11.00;99.90;;;;;;5051455;28;20173;-84
2023/02/17 09:32:59;;;;;;;1.70;1.60;;;11.10;99.90;;;;;;5069165;28;20232;-85
2023/02/17 09:35:25;;;;;;;3.30;2.70;;;11.10;99.90;;;;;;5051986;28;20181;-84
2023/02/17 09:37:51;;;;;;;3.90;2.60;;;11.10;99.90;;;;;;5068603;28;20256;-85
2023/02/17 09:40:27;;;;;;;2.13;2.03;;;11.10;99.90;;;;;;5069414;28;20177;-85
2023/02/17 09:42:52;;;;;;;5.27;1.87;;;11.20;99.90;;;;;;5068939;28;20205;-88
2023/02/17 09:45:24;;;;;;;1.57;1.47;;;11.20;99.90;;;;;;5035586;28;20200;-86
2023/02/17 09:47:56;;;;;;;8.07;3.47;;;11.10;99.90;;;;;;5051849;28;20165;-88
2023/02/17 09:50:30;;;;;;;6.20;2.20;;;11.20;99.90;;;;;;5052007;28;20624;-87
2023/02/17 09:53:02;;;;;;;1.03;0.93;;;11.20;99.90;;;;;;5069706;28;20203;-85
2023/02/17 09:55:37;;;;;;;0.90;0.70;;;11.20;99.90;;;;;;5069326;28;20165;-86
2023/02/17 09:58:21;;;;;;;2.40;2.10;;;11.20;99.90;;;;;;5051466;28;20390;-88
2023/02/17 10:00:50;;;;;;;1.93;1.73;;;11.20;99.90;;;;;;5051796;28;20219;-86
2023/02/17 10:03:22;;;;;;;10.27;2.47;;;11.30;99.90;;;;;;5051300;28;20181;-84
2023/02/17 10:06:08;;;;;;;4.27;2.37;;;11.20;99.90;;;;;;5069082;28;20265;-84
2023/02/17 10:08:55;;;;;;;7.90;2.30;;;11.30;99.90;;;;;;5033668;28;20192;-91
2023/02/17 10:11:35;;;;;;;1.73;1.63;;;11.20;99.90;;;;;;5071341;28;20209;-90
2023/02/17 10:14:20;;;;;;;7.97;1.90;;;11.20;99.90;;;;;;5055357;28;20208;-86
2023/02/17 10:17:27;;;;;;;1.70;1.27;;;11.10;99.90;;;;;;5073484;28;20322;-86
2023/02/17 10:20:09;;;;;;;4.10;1.67;;;11.10;99.90;;;;;;5023627;28;20188;-86
2023/02/17 10:22:38;;;;;;;0.97;0.87;;;11.10;99.90;;;;;;5055007;28;20581;-86
2023/02/17 10:25:16;;;;;;;4.00;1.33;;;11.10;99.90;;;;;;5037826;28;20185;-90
2023/02/17 10:27:48;;;;;;;2.00;1.50;;;11.10;99.90;;;;;;5053767;28;20231;-86
2023/02/17 10:30:34;;;;;;;1.50;1.40;;;11.10;99.90;;;;;;5054555;28;20615;-85
2023/02/17 10:33:10;;;;;;;5.30;2.93;;;11.20;99.90;;;;;;5072872;28;20623;-86
2023/02/17 10:35:50;;;;;;;3.23;1.83;;;11.20;99.90;;;;;;5053986;28;20208;-87
2023/02/17 10:38:17;;;;;;;3.27;2.63;;;11.30;99.90;;;;;;5054357;28;20211;-85
2023/02/17 10:40:47;;;;;;;1.30;1.20;;;11.30;99.90;;;;;;5053765;28;20793;-86
2023/02/17 10:43:20;;;;;;;0.40;0.40;;;11.30;99.90;;;;;;5072091;28;20185;-86
2023/02/17 10:45:50;;;;;;;2.63;1.43;;;11.20;99.90;;;;;;5054252;28;20256;-86
2023/02/17 10:48:32;;;;;;;7.33;1.37;;;11.20;99.90;;;;;;5055543;28;20178;-89
2023/02/17 10:51:00;;;;;;;4.23;1.90;;;11.20;99.90;;;;;;5073433;28;20169;-86
2023/02/17 10:53:33;;;;;;;9.03;1.03;;;11.20;99.90;;;;;;5072154;28;20260;-89
2023/02/17 10:56:06;;;;;;;1.37;1.20;;;11.30;99.90;;;;;;5053855;28;20498;-85
2023/02/17 10:58:37;;;;;;;5.40;1.13;;;11.30;99.90;;;;;;5053763;28;20676;-86
2023/02/17 11:01:05;;;;;;;9.13;1.60;;;11.40;99.90;;;;;;5071286;28;20196;-87
2023/02/17 11:03:35;;;;;;;7.53;1.00;;;11.30;99.90;;;;;;5052645;28;20231;-89
2023/02/17 11:06:14;;;;;;;0.63;0.50;;;11.40;99.90;;;;;;5053087;28;20170;-88
2023/02/17 11:08:56;;;;;;;0.83;0.83;;;11.40;99.90;;;;;;5071670;28;20174;-86
2023/02/17 11:11:29;;;;;;;1.23;1.03;;;11.50;99.90;;;;;;5054171;28;20804;-86
2023/02/17 11:14:07;;;;;;;5.80;1.70;;;11.60;99.90;;;;;;5071103;28;20161;-88
2023/02/17 11:16:42;;;;;;;1.77;1.43;;;11.70;99.90;;;;;;5070877;28;20181;-88
2023/02/17 11:19:25;;;;;;;3.13;0.90;;;11.90;99.90;;;;;;5054166;28;20166;-85
2023/02/17 11:21:53;;;;;;;4.03;1.50;;;12.10;99.90;;;;;;5069760;28;20327;-86
2023/02/17 11:24:19;;;;;;;7.07;1.17;;;12.10;99.90;;;;;;5070875;28;20568;-88
2023/02/17 11:27:17;;;;;;;7.83;1.53;;;12.10;99.90;;;;;;5037145;28;20268;-89
2023/02/17 11:29:43;;;;;;;1.13;0.87;;;11.90;99.90;;;;;;5052149;28;20750;-89
2023/02/17 11:32:12;;;;;;;6.80;2.07;;;11.90;99.90;;;;;;5036406;28;20211;-87
2023/02/17 11:34:42;;;;;;;1.60;1.00;;;11.90;99.90;;;;;;5020999;28;20773;-86
2023/02/17 11:37:08;;;;;;;1.77;1.33;;;12.00;99.90;;;;;;5053325;28;20176;-86
2023/02/17 11:39:42;;;;;;;4.93;1.07;;;12.10;99.90;;;;;;5053130;28;20549;-85
2023/02/17 11:42:26;;;;;;;3.43;1.83;;;12.10;99.90;;;;;;5070366;28;20263;-91
2023/02/17 11:44:55;;;;;;;1.90;1.50;;;12.10;99.90;;;;;;5052955;28;20173;-89
2023/02/17 11:47:53;;;;;;;2.70;1.23;;;12.00;99.90;;;;;;5052980;28;20182;-90
2023/02/17 11:50:31;;;;;;;1.73;0.80;;;12.10;99.90;;;;;;5053722;28;20525;-87
2023/02/17 11:52:57;;;;;;;1.23;0.40;;;12.20;99.90;;;;;;5054186;28;20312;-88
2023/02/17 11:55:38;;;;;;;1.80;1.47;;;12.10;99.90;;;;;;5054484;28;20623;-86
2023/02/17 11:58:10;;;;;;;7.77;1.07;;;12.20;99.90;;;;;;5072199;28;20173;-87
2023/02/17 12:01:00;;;;;;;6.60;0.57;;;12.20;99.90;;;;;;5054249;28;20264;-88
2023/02/17 12:03:41;;;;;;;1.70;1.30;;;12.30;99.90;;;;;;5053875;28;20182;-90
2023/02/17 12:06:16;;;;;;;0.20;0.20;;;12.30;99.90;;;;;;5071800;28;20177;-89
2023/02/17 12:08:57;;;;;;;0.93;0.67;;;12.30;99.90;;;;;;5053840;28;20222;-87
2023/02/17 12:11:58;;;;;;;1.47;1.30;;;12.30;99.90;;;;;;5071444;28;20646;-86
2023/02/17 12:14:42;;;;;;;1.60;0.97;;;12.40;99.90;;;;;;5071570;28;20197;-86
2023/02/17 12:17:25;;;;;;;2.00;0.43;;;12.40;99.90;;;;;;5053587;28;20238;-87
2023/02/17 12:20:19;;;;;;;0.30;0.30;;;12.40;99.90;;;;;;5053429;28;20177;-88
2023/02/17 12:23:17;;;;;;;1.97;1.83;;;12.40;99.90;;;;;;5070611;28;20752;-87
2023/02/17 12:25:52;;;;;;;5.50;1.13;;;12.20;99.90;;;;;;5052791;28;20200;-90
2023/02/17 12:28:27;;;;;;;2.47;0.50;;;12.10;99.90;;;;;;5070108;28;20257;-86
2023/02/17 12:31:34;;;;;;;1.67;0.77;;;12.20;99.90;;;;;;5070042;28;20165;-93
2023/02/17 12:34:08;;;;;;;6.90;0.60;;;12.10;99.90;;;;;;5050910;28;20220;-89
2023/02/17 12:36:40;;;;;;;1.33;1.23;;;12.10;99.90;;;;;;5051954;28;20622;-88
2023/02/17 12:39:17;;;;;;;2.07;1.20;;;12.10;99.90;;;;;;5052245;28;20209;-86
2023/02/17 12:41:49;;;;;;;0.93;0.93;;;12.10;99.90;;;;;;5051926;28;20270;-86
2023/02/17 12:44:28;;;;;;;2.77;0.50;;;12.10;99.90;;;;;;5052469;28;20169;-88
2023/02/17 12:47:20;;;;;;;8.33;1.03;;;12.10;99.90;;;;;;5053354;28;20170;-87
2023/02/17 12:50:00;;;;;;;0.77;0.77;;;12.10;99.90;;;;;;5071055;28;20178;-87
2023/02/17 12:52:39;;;;;;;3.63;1.00;;;12.10;99.90;;;;;;5053716;28;20193;-86
2023/02/17 12:55:20;;;;;;;6.20;1.83;;;12.20;99.90;;;;;;5053570;28;20197;-87
2023/02/17 12:58:02;;;;;;;2.87;1.57;;;12.10;99.90;;;;;;5071134;28;20157;-88
2023/02/17 13:00:45;;;;;;;0.60;0.60;;;12.10;99.90;;;;;;5052329;28;20174;-85
2023/02/17 13:03:11;;;;;;;1.67;1.43;;;12.10;99.90;;;;;;5050870;28;20213;-87
2023/02/17 13:06:02;;;;;;;4.93;2.13;;;12.00;99.90;;;;;;5034215;28;20543;-85
2023/02/17 13:08:40;;;;;;;1.43;1.20;;;12.10;99.90;;;;;;5068865;28;20181;-90